map of LWS home
LWS - Airport
Location
City:  Lewiston, Idaho, United States
Name:Lewiston-Nez Perce County Airport
ICAO:KLWS
IATA:LWS
FAA LID:LWS

Details
Type:Airport (Part 139 Class I)
Use:Public/Civil
Latitude:4622'28"N (46.374500)
Longitude:11700'55"W (-117.015388)
Datum:WGS 1984
Elevation:1441 ft (439 m)
Variation:14.06E (WMM2015 magnetic declination)
-0.13 annual change
Runways:2
Longest:6511 × 150 ft (1985 × 45.5 m), paved

Time
Time Zone:UTC-8 (DST-7)
Local Time:

Weather
METAR:KLWS 152056Z VRB03KT 10SM CLR 14/M03 A3043 RMK AO2 SLP312 T01391028 58018
TAF:KLWS 151728Z 1518/1618 VRB04KT P6SM SKC

Related Locations
Nearby:
Farthest:FTU: 10716 mi / 17245 km
Tolagnaro [Maurillac Airport (Fort Dauphin Airport)], MG

Find:

   beyond  
but within

Other Information
Maps:
Delays:
NOTAMs:
Links:
Sources:

  
  • flag of United States
  • flag of Idaho
  

Airport Diagram

Airport diagram for LWS

Airport diagram PDF

Sectional Chart

Flight Planning
at skyvector.com

Satellite Image

Google Maps Satellite view

 

Copyright © 2004-2018 Karl L. Swartz. All rights reserved.
The Great Circle Mapper name and logo are trademarks of the Great Circle Mapper.
All other trademarks mentioned herein belong to their respective owners.
Please see credits for attibutions and further copyright information.

  Follow gcmap on Facebook Follow gcmap on Twitter Follow gcmap on Google+ GCmap on LinkedIn

hCard Microformat

Geo Microformat